Time;durP1;ratioP1;P1;durP2;ratioP2;P2;SDS_P1;SDS_P2;PMS_P1;PMS_P2;Temp;Humidity;BMP_temperature;BMP_pressure;BME280_temperature;BME280_humidity;BME280_pressure;Samples;Min_cycle;Max_cycle;Signal;HPM_P1;HPM_P2
2023/10/11 00:00:34;;;;;;;9.07;4.50;;;13.00;99.90;;;;;;5069657;28;20024;-66
2023/10/11 00:03:56;;;;;;;10.30;4.32;;;12.90;99.90;;;;;;5069109;28;20016;-66
2023/10/11 00:06:05;;;;;;;11.38;5.38;;;12.90;99.90;;;;;;5060043;28;20060;-66
2023/10/11 00:08:39;;;;;;;13.57;5.38;;;12.90;99.90;;;;;;5071393;28;20023;-66
2023/10/11 00:11:08;;;;;;;9.30;4.63;;;12.90;99.90;;;;;;5042481;28;20120;-66
2023/10/11 00:13:36;;;;;;;11.00;4.90;;;12.90;99.90;;;;;;5070502;28;20037;-66
2023/10/11 00:16:10;;;;;;;10.25;4.70;;;12.90;99.90;;;;;;5074294;28;20012;-66
2023/10/11 00:18:41;;;;;;;9.50;4.93;;;12.90;99.90;;;;;;5068907;28;20116;-66
2023/10/11 00:21:15;;;;;;;9.88;4.70;;;12.90;99.90;;;;;;5064692;28;20108;-67
2023/10/11 00:23:48;;;;;;;11.95;4.93;;;13.00;99.90;;;;;;5071759;28;20028;-66
2023/10/11 00:26:14;;;;;;;10.50;4.60;;;13.00;99.90;;;;;;5070930;28;20098;-66
2023/10/11 00:28:40;;;;;;;9.95;4.93;;;13.00;99.90;;;;;;5064667;28;20103;-66
2023/10/11 00:31:17;;;;;;;13.63;4.85;;;13.00;99.90;;;;;;5064658;28;20028;-66
2023/10/11 00:33:43;;;;;;;8.15;3.90;;;13.00;99.90;;;;;;5064987;28;20110;-66
2023/10/11 00:36:08;;;;;;;10.07;4.90;;;13.00;99.90;;;;;;5070528;28;20033;-66
2023/10/11 00:38:50;;;;;;;10.38;4.38;;;13.10;99.90;;;;;;5084028;28;20401;-67
2023/10/11 00:41:18;;;;;;;11.70;4.13;;;13.10;99.90;;;;;;5070934;28;20509;-66
2023/10/11 00:43:50;;;;;;;8.00;4.90;;;13.10;99.90;;;;;;5071715;28;20032;-66
2023/10/11 00:46:19;;;;;;;11.23;4.75;;;13.10;99.90;;;;;;5070842;28;20033;-66
2023/10/11 00:49:08;;;;;;;7.95;3.97;;;13.10;99.90;;;;;;5071842;28;20126;-66
2023/10/11 00:51:36;;;;;;;8.20;4.45;;;13.10;99.90;;;;;;5069811;28;20067;-67
2023/10/11 00:54:04;;;;;;;10.38;3.97;;;13.10;99.90;;;;;;5064746;28;20482;-66
2023/10/11 00:56:32;;;;;;;7.13;3.85;;;13.10;99.90;;;;;;5064192;28;20489;-66
2023/10/11 00:59:08;;;;;;;9.63;4.18;;;13.00;99.90;;;;;;5071501;28;20070;-66
2023/10/11 01:01:35;;;;;;;12.32;4.68;;;13.00;99.90;;;;;;5063380;28;20024;-66
2023/10/11 01:04:00;;;;;;;9.80;4.55;;;13.00;99.90;;;;;;5073374;28;20028;-65
2023/10/11 01:06:26;;;;;;;13.07;4.60;;;13.00;99.90;;;;;;5071282;28;20366;-66
2023/10/11 01:08:52;;;;;;;15.60;4.35;;;12.90;99.90;;;;;;5072774;28;20074;-66
2023/10/11 01:11:18;;;;;;;9.48;4.38;;;12.90;99.90;;;;;;5061784;28;20179;-67
2023/10/11 01:13:50;;;;;;;19.33;4.78;;;12.90;99.90;;;;;;5072973;28;20028;-66
2023/10/11 01:16:17;;;;;;;17.80;5.32;;;12.90;99.90;;;;;;5073108;28;20028;-66
2023/10/11 01:18:43;;;;;;;10.05;4.50;;;12.90;99.90;;;;;;5072865;28;20028;-66
2023/10/11 01:21:10;;;;;;;14.23;5.50;;;12.90;99.90;;;;;;5072822;28;20043;-66
2023/10/11 01:23:35;;;;;;;8.20;4.70;;;12.90;99.90;;;;;;5072895;28;20029;-66
2023/10/11 01:26:09;;;;;;;8.60;4.60;;;12.90;99.90;;;;;;5072743;28;20039;-66
2023/10/11 01:28:36;;;;;;;11.23;4.53;;;12.80;99.90;;;;;;5070345;28;20024;-66
2023/10/11 01:31:08;;;;;;;14.43;4.93;;;12.80;99.90;;;;;;5064925;28;20034;-66
2023/10/11 01:33:42;;;;;;;6.90;4.07;;;12.80;99.90;;;;;;5064933;28;20028;-67
2023/10/11 01:36:09;;;;;;;6.93;4.28;;;12.80;99.90;;;;;;5062056;28;20054;-67
2023/10/11 01:38:49;;;;;;;10.13;4.43;;;12.80;99.90;;;;;;5066647;28;20040;-66
2023/10/11 01:41:26;;;;;;;9.35;3.90;;;12.80;99.90;;;;;;5059254;28;20021;-66
2023/10/11 01:43:53;;;;;;;11.45;5.45;;;12.80;99.90;;;;;;5086181;28;20028;-66
2023/10/11 01:46:35;;;;;;;13.27;5.07;;;12.80;99.90;;;;;;5068308;28;20497;-66
2023/10/11 01:49:01;;;;;;;13.60;4.60;;;12.70;99.90;;;;;;5085383;28;20035;-66
2023/10/11 01:51:27;;;;;;;9.88;4.53;;;12.70;99.90;;;;;;5070260;28;20021;-66
2023/10/11 01:54:01;;;;;;;13.15;4.70;;;12.70;99.90;;;;;;5069574;28;20042;-66
2023/10/11 01:56:27;;;;;;;12.05;5.10;;;12.70;99.90;;;;;;5068589;28;20024;-66
2023/10/11 01:59:00;;;;;;;7.60;4.07;;;12.70;99.90;;;;;;5068567;28;20501;-66
2023/10/11 02:01:30;;;;;;;11.98;4.65;;;12.80;99.90;;;;;;5066079;28;20028;-66
2023/10/11 02:04:03;;;;;;;11.40;4.50;;;12.80;99.90;;;;;;5069015;28;20032;-66
2023/10/11 02:06:32;;;;;;;7.67;4.07;;;12.70;99.90;;;;;;5067767;28;20036;-66
2023/10/11 02:08:58;;;;;;;13.00;4.40;;;12.70;99.90;;;;;;5067255;28;21034;-66
2023/10/11 02:11:25;;;;;;;7.22;3.88;;;12.70;99.90;;;;;;5067223;28;20115;-66
2023/10/11 02:13:52;;;;;;;11.52;4.95;;;12.70;99.90;;;;;;5071607;28;20028;-66
2023/10/11 02:16:19;;;;;;;8.57;4.47;;;12.60;99.90;;;;;;5069971;28;20020;-66
2023/10/11 02:18:51;;;;;;;11.30;4.07;;;12.60;99.90;;;;;;5071197;28;20055;-66
2023/10/11 02:21:18;;;;;;;8.15;4.38;;;12.60;99.90;;;;;;5069972;28;20240;-66
2023/10/11 02:23:44;;;;;;;7.93;3.83;;;12.60;99.90;;;;;;5070160;28;20089;-65
2023/10/11 02:26:13;;;;;;;12.63;4.15;;;12.60;99.90;;;;;;5066905;28;20028;-66
2023/10/11 02:28:39;;;;;;;9.60;5.00;;;12.60;99.90;;;;;;5063428;28;20399;-66
2023/10/11 02:31:06;;;;;;;9.15;4.43;;;12.60;99.90;;;;;;5069106;28;20409;-66
2023/10/11 02:33:33;;;;;;;7.13;4.35;;;12.60;99.90;;;;;;5070660;28;20033;-66
2023/10/11 02:36:08;;;;;;;11.68;5.18;;;12.60;99.90;;;;;;5067155;28;20112;-66
2023/10/11 02:38:47;;;;;;;12.77;4.90;;;12.60;99.90;;;;;;5067939;28;20067;-67
2023/10/11 02:41:24;;;;;;;19.65;5.25;;;12.60;99.90;;;;;;5064621;28;20052;-66
2023/10/11 02:43:53;;;;;;;8.55;3.95;;;12.60;99.90;;;;;;5065798;28;20028;-66
2023/10/11 02:46:23;;;;;;;9.52;3.70;;;12.70;99.90;;;;;;5068771;28;20056;-66
2023/10/11 02:48:52;;;;;;;8.07;4.50;;;12.60;99.90;;;;;;5069437;28;20024;-66
2023/10/11 02:51:24;;;;;;;11.32;5.50;;;12.70;99.90;;;;;;5068952;28;20111;-66
2023/10/11 02:53:52;;;;;;;9.05;4.25;;;12.60;99.90;;;;;;5064099;28;20484;-66
2023/10/11 02:56:18;;;;;;;11.43;4.32;;;12.60;99.90;;;;;;5064628;28;20024;-66
2023/10/11 02:58:44;;;;;;;8.80;3.70;;;12.60;99.90;;;;;;5069115;28;20032;-66
2023/10/11 03:01:20;;;;;;;9.15;4.70;;;12.60;99.90;;;;;;5063229;28;20032;-65
2023/10/11 03:03:47;;;;;;;10.85;4.57;;;12.60;99.90;;;;;;5064552;28;20025;-66
2023/10/11 03:06:13;;;;;;;10.23;4.65;;;12.50;99.90;;;;;;5071399;28;20535;-66
2023/10/11 03:08:40;;;;;;;14.27;4.63;;;12.50;99.90;;;;;;5068472;28;20032;-66
2023/10/11 03:11:08;;;;;;;14.68;4.78;;;12.40;99.90;;;;;;5068565;28;20023;-67
2023/10/11 03:13:44;;;;;;;13.90;5.30;;;12.40;99.90;;;;;;5068800;28;20082;-66
2023/10/11 03:16:13;;;;;;;10.60;4.40;;;12.40;99.90;;;;;;5066998;28;20025;-66
2023/10/11 03:18:40;;;;;;;9.00;5.55;;;12.40;99.90;;;;;;5070833;28;20028;-65
2023/10/11 03:23:44;;;;;;;12.18;4.65;;;12.40;99.90;;;;;;5068354;28;20033;-66
2023/10/11 03:26:19;;;;;;;13.07;4.43;;;12.30;99.90;;;;;;5072426;28;20053;-66
2023/10/11 03:28:57;;;;;;;10.52;5.10;;;12.30;99.90;;;;;;5072386;28;20016;-66
2023/10/11 03:31:31;;;;;;;12.05;4.30;;;12.30;99.90;;;;;;5071243;28;20032;-66
2023/10/11 03:33:59;;;;;;;13.00;4.63;;;12.30;99.90;;;;;;5068920;28;20477;-66
2023/10/11 03:36:43;;;;;;;9.88;5.07;;;12.20;99.90;;;;;;5070590;28;20024;-67
2023/10/11 03:39:10;;;;;;;11.77;4.20;;;12.20;99.90;;;;;;5069623;28;20020;-66
2023/10/11 03:41:45;;;;;;;7.03;3.97;;;12.20;99.90;;;;;;5071530;28;20028;-66
2023/10/11 03:44:17;;;;;;;8.68;4.57;;;12.10;99.90;;;;;;5071107;28;20067;-66
2023/10/11 03:46:47;;;;;;;13.00;4.38;;;12.00;99.90;;;;;;5073150;28;20155;-66
2023/10/11 03:51:48;;;;;;;15.68;4.40;;;11.90;99.90;;;;;;5072553;28;20028;-67
2023/10/11 03:54:22;;;;;;;12.20;4.70;;;11.80;99.90;;;;;;5070265;28;20036;-66
2023/10/11 03:56:53;;;;;;;11.60;4.85;;;11.70;99.90;;;;;;5070544;28;20074;-67
2023/10/11 03:59:20;;;;;;;22.35;5.35;;;11.70;99.90;;;;;;5071312;28;20020;-66
2023/10/11 04:01:46;;;;;;;10.80;4.63;;;11.70;99.90;;;;;;5065365;28;20017;-66
2023/10/11 04:04:12;;;;;;;14.10;4.50;;;11.70;99.90;;;;;;5069839;28;20390;-66
2023/10/11 04:06:37;;;;;;;16.13;5.57;;;11.70;99.90;;;;;;5070545;28;20086;-66
2023/10/11 04:09:03;;;;;;;7.88;4.45;;;11.70;99.90;;;;;;5071255;28;20043;-66
2023/10/11 04:11:53;;;;;;;15.95;5.07;;;11.70;99.90;;;;;;5072578;28;20446;-66
2023/10/11 04:14:24;;;;;;;12.85;4.93;;;11.80;99.90;;;;;;5070952;28;20505;-66
2023/10/11 04:16:52;;;;;;;11.25;4.80;;;11.80;99.90;;;;;;5072055;28;20024;-66
2023/10/11 04:19:21;;;;;;;13.40;5.60;;;11.70;99.90;;;;;;5073458;28;20024;-66
2023/10/11 04:24:19;;;;;;;14.00;4.72;;;11.70;99.90;;;;;;5072222;28;20037;-66
2023/10/11 04:26:54;;;;;;;8.43;4.70;;;11.60;99.90;;;;;;5073730;28;20035;-66
2023/10/11 04:29:25;;;;;;;12.60;5.13;;;11.60;99.90;;;;;;5067949;28;20029;-66
2023/10/11 04:34:32;;;;;;;9.50;4.75;;;11.60;99.90;;;;;;5072841;28;20473;-66
2023/10/11 04:36:59;;;;;;;17.45;5.32;;;11.60;99.90;;;;;;5072142;28;20105;-67
2023/10/11 04:39:28;;;;;;;17.55;5.43;;;11.60;99.90;;;;;;5069686;28;20028;-66
2023/10/11 04:41:59;;;;;;;12.05;5.30;;;11.70;99.90;;;;;;5071189;28;20497;-67
2023/10/11 04:44:30;;;;;;;12.18;5.38;;;11.70;99.90;;;;;;5072289;28;20020;-66
2023/10/11 04:47:00;;;;;;;12.50;5.30;;;11.60;99.90;;;;;;5072695;28;20589;-66
2023/10/11 04:49:30;;;;;;;10.93;5.22;;;11.60;99.90;;;;;;5072164;28;20035;-66
2023/10/11 04:51:57;;;;;;;9.73;5.13;;;11.60;99.90;;;;;;5073609;28;20035;-66
2023/10/11 04:54:36;;;;;;;10.95;4.90;;;11.60;99.90;;;;;;5067081;28;20021;-66
2023/10/11 04:57:48;;;;;;;11.80;4.88;;;11.60;99.90;;;;;;5070325;28;20024;-66
2023/10/11 04:59:59;;;;;;;11.67;4.93;;;11.60;99.90;;;;;;5066038;28;20029;-66
2023/10/11 05:02:32;;;;;;;12.18;4.97;;;11.50;99.90;;;;;;5071152;28;20070;-67
2023/10/11 05:04:59;;;;;;;11.07;5.55;;;11.50;99.90;;;;;;5073412;28;20070;-66
2023/10/11 05:07:25;;;;;;;10.73;5.20;;;11.50;99.90;;;;;;5070491;28;20056;-70
2023/10/11 05:10:17;;;;;;;8.63;4.65;;;11.40;99.90;;;;;;5052224;28;20052;-66
2023/10/11 05:12:44;;;;;;;7.10;4.03;;;11.40;99.90;;;;;;5062957;28;20560;-66
2023/10/11 05:15:10;;;;;;;11.57;4.88;;;11.50;99.90;;;;;;5070680;28;20381;-66
2023/10/11 05:17:39;;;;;;;18.75;5.45;;;11.40;99.90;;;;;;5071545;28;20095;-66
2023/10/11 05:28:07;;;;;;;15.30;5.53;;;11.40;99.90;;;;;;5063253;28;20097;-67
2023/10/11 05:30:34;;;;;;;13.38;4.88;;;11.40;99.90;;;;;;5063493;28;20021;-66
2023/10/11 05:52:07;;;;;;;13.55;4.35;;;11.50;99.90;;;;;;5063602;28;20039;-66
2023/10/11 05:54:36;;;;;;;13.45;4.53;;;11.60;99.90;;;;;;5062213;28;20484;-67
2023/10/11 05:57:05;;;;;;;10.75;4.90;;;11.60;99.90;;;;;;5066553;28;20086;-66
2023/10/11 05:59:32;;;;;;;10.20;4.65;;;11.60;99.90;;;;;;5069536;28;20537;-66
2023/10/11 06:01:59;;;;;;;12.55;4.28;;;11.70;99.90;;;;;;5067005;28;20021;-65
2023/10/11 06:04:24;;;;;;;11.68;4.63;;;11.80;99.90;;;;;;5069984;28;20508;-66
2023/10/11 06:06:57;;;;;;;9.60;4.35;;;11.80;99.90;;;;;;5069193;28;20056;-65
2023/10/11 06:09:27;;;;;;;15.13;4.93;;;11.90;99.90;;;;;;5043911;28;20048;-66
2023/10/11 06:11:53;;;;;;;13.60;5.30;;;12.00;99.90;;;;;;5068383;28;20041;-66
2023/10/11 06:14:20;;;;;;;12.43;4.40;;;12.10;99.90;;;;;;5071081;28;20405;-66
2023/10/11 06:16:57;;;;;;;13.05;4.65;;;12.20;99.90;;;;;;5067260;28;20045;-66
2023/10/11 06:19:27;;;;;;;7.10;3.90;;;12.30;99.90;;;;;;5069101;28;20025;-67
2023/10/11 06:21:58;;;;;;;12.27;4.50;;;12.40;99.90;;;;;;5066885;28;20508;-66
2023/10/11 06:24:30;;;;;;;10.95;4.28;;;12.50;99.90;;;;;;5065561;28;20054;-66
2023/10/11 06:27:11;;;;;;;9.80;4.15;;;12.60;99.90;;;;;;5067608;28;20039;-66
2023/10/11 06:29:38;;;;;;;14.20;4.40;;;12.70;99.90;;;;;;5069441;28;20025;-66
2023/10/11 06:32:11;;;;;;;14.98;4.60;;;12.90;99.90;;;;;;5070203;28;20032;-66
2023/10/11 06:34:37;;;;;;;8.63;4.25;;;13.00;99.90;;;;;;5070980;28;20435;-66
2023/10/11 06:37:06;;;;;;;10.43;3.88;;;13.20;99.90;;;;;;5068925;28;20024;-66
2023/10/11 06:42:14;;;;;;;8.88;3.45;;;13.50;99.90;;;;;;5070109;28;20024;-66
2023/10/11 06:44:41;;;;;;;10.07;3.83;;;13.70;99.90;;;;;;5069832;28;20028;-67
2023/10/11 06:47:10;;;;;;;14.70;4.80;;;13.80;99.90;;;;;;5065868;28;20103;-65
2023/10/11 06:49:40;;;;;;;9.15;4.38;;;13.90;99.90;;;;;;5061862;28;20033;-66
2023/10/11 06:52:15;;;;;;;8.25;3.80;;;14.10;99.90;;;;;;5070181;28;20110;-66
2023/10/11 06:54:47;;;;;;;9.98;4.22;;;14.20;99.90;;;;;;5067052;28;20422;-66
2023/10/11 06:57:19;;;;;;;10.98;4.88;;;14.30;99.90;;;;;;5061855;28;20027;-66
2023/10/11 06:59:56;;;;;;;13.20;5.43;;;14.30;99.90;;;;;;5066075;28;20374;-66
2023/10/11 07:02:31;;;;;;;8.20;4.78;;;14.40;99.90;;;;;;5079745;28;20478;-66
2023/10/11 07:05:17;;;;;;;10.38;4.15;;;14.40;99.90;;;;;;5062878;28;20104;-65
2023/10/11 07:07:47;;;;;;;15.75;4.00;;;14.30;99.90;;;;;;5060265;28;20048;-66
2023/10/11 07:10:29;;;;;;;11.32;4.30;;;14.40;99.90;;;;;;5050643;28;20102;-66
2023/10/11 07:13:05;;;;;;;11.15;4.72;;;14.40;99.90;;;;;;5060193;28;20024;-65
2023/10/11 07:15:48;;;;;;;12.60;4.38;;;14.40;99.90;;;;;;5060137;28;20029;-65
2023/10/11 07:18:25;;;;;;;7.90;3.53;;;14.50;99.90;;;;;;5061110;28;20035;-66
2023/10/11 07:21:10;;;;;;;9.65;3.38;;;14.60;99.90;;;;;;5061661;28;20043;-65
2023/10/11 07:28:59;;;;;;;6.03;3.88;;;15.10;99.90;;;;;;5061015;28;20042;-66
2023/10/11 07:31:33;;;;;;;7.97;3.63;;;15.30;99.90;;;;;;5063988;28;20078;-66
2023/10/11 07:34:05;;;;;;;9.00;3.58;;;15.50;99.90;;;;;;5069454;28;20033;-66
2023/10/11 07:36:31;;;;;;;9.60;3.63;;;15.70;99.90;;;;;;5069488;28;20020;-66
2023/10/11 07:39:00;;;;;;;10.85;4.15;;;15.80;99.90;;;;;;5064102;28;20398;-66
2023/10/11 07:41:29;;;;;;;7.55;4.03;;;16.00;99.90;;;;;;5066174;28;20024;-66
2023/10/11 07:43:56;;;;;;;10.63;3.08;;;16.10;99.90;;;;;;5069584;28;20028;-66
2023/10/11 07:46:22;;;;;;;17.65;4.28;;;16.10;99.90;;;;;;5066871;28;20036;-66
2023/10/11 07:48:48;;;;;;;12.10;3.35;;;16.10;99.90;;;;;;5066496;28;20063;-66
2023/10/11 07:51:14;;;;;;;9.70;3.78;;;16.10;99.90;;;;;;5067094;28;20621;-66
2023/10/11 07:53:45;;;;;;;12.18;4.20;;;16.20;99.90;;;;;;5058282;28;20036;-67
2023/10/11 07:56:15;;;;;;;11.13;3.72;;;16.20;99.90;;;;;;5061074;28;20481;-66
2023/10/11 07:58:45;;;;;;;9.75;3.22;;;16.30;99.90;;;;;;5067264;28;20027;-66
2023/10/11 08:01:30;;;;;;;13.40;4.03;;;16.40;99.90;;;;;;5067856;28;20103;-66
2023/10/11 08:03:59;;;;;;;6.22;3.20;;;16.40;99.90;;;;;;5070441;28;20024;-66
2023/10/11 08:06:25;;;;;;;16.80;4.82;;;16.60;99.90;;;;;;5071226;28;20025;-67
2023/10/11 08:08:59;;;;;;;6.57;3.08;;;16.60;99.90;;;;;;5069369;28;20716;-66
2023/10/11 08:11:28;;;;;;;7.55;3.67;;;16.70;99.90;;;;;;5071229;28;20513;-66
2023/10/11 08:14:00;;;;;;;10.68;3.58;;;16.80;99.90;;;;;;5066824;28;20040;-66
2023/10/11 08:16:26;;;;;;;10.27;3.85;;;16.90;99.90;;;;;;5060928;28;20040;-66
2023/10/11 08:18:52;;;;;;;9.93;3.25;;;17.10;99.90;;;;;;5067776;28;20024;-66
2023/10/11 08:21:18;;;;;;;8.45;3.67;;;17.20;99.90;;;;;;5068257;28;20151;-66
2023/10/11 08:23:44;;;;;;;8.82;3.60;;;17.30;99.90;;;;;;5047447;28;20056;-66
2023/10/11 08:26:19;;;;;;;9.00;3.40;;;17.40;99.90;;;;;;5065787;28;20017;-66
2023/10/11 08:28:48;;;;;;;10.75;3.72;;;17.60;99.90;;;;;;5070477;28;20071;-66
2023/10/11 08:31:37;;;;;;;6.55;3.33;;;17.70;99.90;;;;;;5071369;28;20036;-66
2023/10/11 08:34:03;;;;;;;8.77;3.30;;;17.80;99.90;;;;;;5068545;28;20031;-66
2023/10/11 08:36:35;;;;;;;8.55;3.42;;;18.00;99.90;;;;;;5071335;28;20037;-66
2023/10/11 08:39:05;;;;;;;11.82;3.05;;;18.10;99.90;;;;;;5068814;28;20032;-66
2023/10/11 08:41:34;;;;;;;9.52;4.60;;;18.20;99.90;;;;;;5072708;28;20021;-68
2023/10/11 08:44:01;;;;;;;13.75;4.25;;;18.30;99.90;;;;;;5070883;28;20060;-66
2023/10/11 08:46:31;;;;;;;7.45;3.97;;;18.40;99.90;;;;;;5071623;28;20496;-66
2023/10/11 08:49:00;;;;;;;6.05;3.20;;;18.60;99.90;;;;;;5072005;28;20035;-66
2023/10/11 08:51:36;;;;;;;8.80;3.65;;;18.70;99.90;;;;;;5068266;28;20032;-66
2023/10/11 08:54:11;;;;;;;9.93;3.67;;;18.90;99.90;;;;;;5077124;28;20028;-66
2023/10/11 08:56:43;;;;;;;11.20;3.67;;;18.90;99.90;;;;;;5071077;28;20020;-66
2023/10/11 08:59:14;;;;;;;7.38;2.90;;;19.00;99.90;;;;;;5071429;28;20035;-66
2023/10/11 09:01:45;;;;;;;13.20;4.55;;;19.10;99.90;;;;;;5062547;28;20028;-66
2023/10/11 09:04:15;;;;;;;9.63;3.33;;;19.40;99.90;;;;;;5070016;28;20024;-66
2023/10/11 09:06:46;;;;;;;11.50;4.13;;;19.90;99.90;;;;;;5067671;28;20060;-66
2023/10/11 09:09:32;;;;;;;11.05;3.63;;;20.30;99.90;;;;;;5069888;28;20108;-66
2023/10/11 09:11:58;;;;;;;9.45;3.13;;;20.80;99.90;;;;;;5065579;28;20114;-66
2023/10/11 09:14:24;;;;;;;10.82;3.42;;;21.10;99.90;;;;;;5069850;28;20036;-67
2023/10/11 09:16:57;;;;;;;8.75;3.40;;;21.60;99.90;;;;;;5048596;28;20041;-66
2023/10/11 09:19:23;;;;;;;10.90;3.20;;;21.70;99.90;;;;;;5070104;28;20036;-66
2023/10/11 09:22:05;;;;;;;8.98;3.65;;;22.10;99.90;;;;;;5067592;28;20470;-67
2023/10/11 09:24:41;;;;;;;6.93;3.53;;;22.40;99.90;;;;;;5068960;28;20029;-66
2023/10/11 09:29:47;;;;;;;7.72;3.42;;;23.00;99.90;;;;;;5064386;28;20028;-67
2023/10/11 09:32:28;;;;;;;6.88;3.38;;;23.20;99.90;;;;;;5066000;28;20390;-67
2023/10/11 09:34:54;;;;;;;7.45;3.63;;;23.20;99.90;;;;;;5064927;28;20039;-67
2023/10/11 09:37:23;;;;;;;12.95;3.47;;;23.20;99.90;;;;;;5071171;28;20024;-67
2023/10/11 09:39:53;;;;;;;8.30;3.85;;;23.20;99.90;;;;;;5070001;28;20024;-67
2023/10/11 09:42:22;;;;;;;11.73;3.70;;;23.40;99.90;;;;;;5070437;28;20055;-67
2023/10/11 09:44:51;;;;;;;10.63;3.25;;;23.40;98.50;;;;;;5069623;28;20020;-67
2023/10/11 09:47:17;;;;;;;8.23;3.58;;;23.60;99.90;;;;;;5067952;28;20470;-67
2023/10/11 09:49:46;;;;;;;8.98;3.78;;;23.70;99.50;;;;;;5071610;28;20032;-67
2023/10/11 09:52:16;;;;;;;9.63;3.75;;;23.70;99.80;;;;;;5069021;28;20067;-67
2023/10/11 09:54:42;;;;;;;5.63;2.90;;;24.00;99.00;;;;;;5061826;28;20482;-66
2023/10/11 09:57:31;;;;;;;7.47;3.80;;;24.10;98.10;;;;;;5065349;28;20051;-68
2023/10/11 10:00:18;;;;;;;6.75;3.47;;;24.10;98.00;;;;;;5061315;28;20033;-67
2023/10/11 10:02:50;;;;;;;9.70;3.28;;;23.90;98.60;;;;;;5069154;28;20115;-66
2023/10/11 10:05:17;;;;;;;6.38;3.30;;;24.00;98.60;;;;;;5063260;28;20021;-67
2023/10/11 10:07:43;;;;;;;10.75;3.42;;;23.90;98.70;;;;;;5065290;28;20044;-67
2023/10/11 10:10:16;;;;;;;8.52;3.65;;;24.00;97.50;;;;;;5066144;28;20028;-67
2023/10/11 10:12:55;;;;;;;12.10;3.13;;;24.00;97.20;;;;;;5069761;28;20058;-67
2023/10/11 10:15:23;;;;;;;7.93;2.95;;;23.90;96.80;;;;;;5071352;28;20442;-66
2023/10/11 10:18:00;;;;;;;8.18;3.38;;;23.80;95.90;;;;;;5052977;28;20067;-67
2023/10/11 10:20:41;;;;;;;9.05;3.63;;;23.60;95.70;;;;;;5070462;28;20024;-66
2023/10/11 10:23:15;;;;;;;11.82;3.90;;;23.50;97.60;;;;;;5077281;28;20029;-66
2023/10/11 10:25:51;;;;;;;8.13;2.70;;;23.60;96.50;;;;;;5069781;28;20028;-67
2023/10/11 10:28:32;;;;;;;9.32;3.08;;;23.60;96.30;;;;;;5068763;28;20029;-67
2023/10/11 10:31:09;;;;;;;9.52;2.95;;;23.60;96.70;;;;;;5065957;28;20428;-68
2023/10/11 10:33:35;;;;;;;10.40;3.70;;;23.50;97.30;;;;;;5067816;28;20078;-66
2023/10/11 10:36:20;;;;;;;9.57;3.53;;;23.40;96.90;;;;;;5064009;28;20016;-66
2023/10/11 10:39:01;;;;;;;9.65;2.63;;;23.30;97.30;;;;;;5064917;28;20031;-66
2023/10/11 10:41:27;;;;;;;8.05;3.33;;;23.20;96.80;;;;;;5064828;28;20036;-66
2023/10/11 10:44:21;;;;;;;18.67;3.25;;;23.30;97.60;;;;;;5064633;28;20082;-67
2023/10/11 10:46:53;;;;;;;7.75;3.58;;;23.30;96.80;;;;;;5063805;28;20041;-66
2023/10/11 10:49:21;;;;;;;10.52;3.25;;;23.30;97.70;;;;;;5063983;28;20481;-66
2023/10/11 10:51:47;;;;;;;11.20;3.58;;;23.40;97.00;;;;;;5066467;28;20493;-67
2023/10/11 10:54:14;;;;;;;5.68;2.78;;;23.40;97.00;;;;;;5064078;28;20029;-67
2023/10/11 10:56:53;;;;;;;11.35;3.22;;;23.40;96.80;;;;;;5066437;28;20036;-66
2023/10/11 10:59:21;;;;;;;7.75;3.20;;;23.60;96.80;;;;;;5067783;28;20044;-66
2023/10/11 11:01:50;;;;;;;7.00;2.67;;;23.70;96.70;;;;;;5069046;28;20115;-66
2023/10/11 11:04:20;;;;;;;9.82;3.65;;;23.70;94.90;;;;;;5070755;28;20027;-67
2023/10/11 11:06:47;;;;;;;15.20;4.03;;;23.80;95.00;;;;;;5067537;28;20029;-67
2023/10/11 11:09:27;;;;;;;9.27;3.80;;;23.80;93.90;;;;;;5065772;28;20542;-69
2023/10/11 11:12:04;;;;;;;12.07;3.60;;;23.80;94.30;;;;;;5068895;28;20020;-66
2023/10/11 11:14:29;;;;;;;7.85;2.63;;;23.80;94.50;;;;;;5066209;28;20034;-66
2023/10/11 11:16:56;;;;;;;7.95;2.63;;;23.80;95.00;;;;;;5043162;28;20028;-66
2023/10/11 11:19:27;;;;;;;7.47;2.63;;;23.80;93.50;;;;;;5067551;28;20117;-66
2023/10/11 11:22:15;;;;;;;12.07;3.92;;;23.90;94.00;;;;;;5069614;28;20069;-67
2023/10/11 11:24:42;;;;;;;6.68;2.92;;;24.00;95.10;;;;;;5060110;28;20036;-66
2023/10/11 11:27:27;;;;;;;13.52;3.30;;;24.00;94.30;;;;;;5069194;28;20024;-67
2023/10/11 11:30:02;;;;;;;7.50;3.30;;;23.90;94.30;;;;;;5068907;28;20111;-66
2023/10/11 11:32:41;;;;;;;7.95;2.50;;;24.00;93.50;;;;;;5066986;28;20025;-66
2023/10/11 11:38:05;;;;;;;5.80;2.80;;;24.00;95.30;;;;;;5064713;28;20039;-67
2023/10/11 11:40:36;;;;;;;7.85;2.83;;;24.10;93.90;;;;;;5072237;28;20032;-67
2023/10/11 11:43:05;;;;;;;4.72;2.50;;;24.10;95.10;;;;;;5069257;28;20031;-66
2023/10/11 11:45:35;;;;;;;8.70;2.65;;;24.00;93.10;;;;;;5066369;28;20030;-66
2023/10/11 11:48:05;;;;;;;7.18;2.63;;;24.00;93.50;;;;;;5073111;28;20059;-67
2023/10/11 11:50:33;;;;;;;12.10;2.72;;;24.00;94.20;;;;;;5068298;28;20028;-67
2023/10/11 11:53:03;;;;;;;15.45;2.97;;;24.10;94.80;;;;;;5068965;28;20024;-67
2023/10/11 11:55:29;;;;;;;8.00;2.90;;;24.00;93.30;;;;;;5070971;28;20051;-66
2023/10/11 11:57:55;;;;;;;14.88;2.70;;;24.20;93.10;;;;;;5068377;28;20588;-66
2023/10/11 12:02:58;;;;;;;8.80;2.90;;;24.40;93.50;;;;;;5066877;28;20020;-67
2023/10/11 12:05:24;;;;;;;9.07;2.90;;;24.30;94.10;;;;;;5068466;28;20479;-66
2023/10/11 12:07:51;;;;;;;8.75;2.53;;;24.20;93.30;;;;;;5072801;28;20025;-66
2023/10/11 12:10:25;;;;;;;5.43;2.10;;;24.20;92.90;;;;;;5061569;28;20029;-66
2023/10/11 12:12:51;;;;;;;13.45;3.45;;;24.20;94.70;;;;;;5072429;28;20032;-66
2023/10/11 12:15:18;;;;;;;9.75;3.08;;;24.20;91.80;;;;;;5068005;28;20033;-66
2023/10/11 12:17:44;;;;;;;10.25;2.65;;;24.10;92.80;;;;;;5053945;28;20091;-67
2023/10/11 12:20:12;;;;;;;10.90;3.05;;;24.20;93.90;;;;;;5067138;28;20013;-67
2023/10/11 12:22:45;;;;;;;10.45;3.00;;;24.10;94.10;;;;;;5069365;28;20037;-66
2023/10/11 12:25:13;;;;;;;5.13;2.00;;;24.10;92.10;;;;;;5065929;28;20101;-67
2023/10/11 12:27:42;;;;;;;10.88;2.20;;;24.10;87.90;;;;;;5067484;28;20694;-67
2023/10/11 12:30:22;;;;;;;11.43;2.65;;;24.00;90.50;;;;;;5066282;28;20119;-67
2023/10/11 12:32:52;;;;;;;5.57;2.33;;;24.00;89.90;;;;;;5071477;28;20032;-66
2023/10/11 12:35:20;;;;;;;7.20;1.95;;;24.00;88.60;;;;;;5067311;28;20031;-67
2023/10/11 12:37:49;;;;;;;6.60;2.45;;;24.10;88.90;;;;;;5072202;28;20078;-66
2023/10/11 12:40:22;;;;;;;7.03;2.63;;;24.10;89.90;;;;;;5066631;28;20477;-67
2023/10/11 12:42:50;;;;;;;6.82;2.67;;;24.10;89.10;;;;;;5072836;28;20458;-67
2023/10/11 12:45:16;;;;;;;10.52;2.47;;;24.10;89.10;;;;;;5067856;28;20025;-66
2023/10/11 12:47:43;;;;;;;7.30;2.53;;;24.20;87.00;;;;;;5063312;28;20629;-66
2023/10/11 12:50:08;;;;;;;7.45;2.90;;;24.20;85.70;;;;;;5066983;28;20032;-66
2023/10/11 12:52:38;;;;;;;10.48;2.67;;;24.10;86.00;;;;;;5066599;28;20024;-67
2023/10/11 12:55:07;;;;;;;14.25;3.63;;;24.10;86.70;;;;;;5063012;28;20033;-66
2023/10/11 12:57:39;;;;;;;8.63;2.58;;;24.10;87.70;;;;;;5072508;28;20016;-66
2023/10/11 13:00:28;;;;;;;9.43;3.00;;;24.10;88.40;;;;;;5071154;28;20025;-66
2023/10/11 13:02:54;;;;;;;15.35;2.75;;;24.10;89.10;;;;;;5067200;28;20078;-66
2023/10/11 13:05:20;;;;;;;10.18;2.80;;;24.00;88.10;;;;;;5067594;28;20025;-66
2023/10/11 13:07:45;;;;;;;20.33;3.97;;;24.00;89.70;;;;;;5068851;28;20039;-67
2023/10/11 13:10:11;;;;;;;11.80;2.45;;;24.00;87.60;;;;;;5065553;28;20029;-66
2023/10/11 13:12:37;;;;;;;18.42;3.53;;;24.00;88.90;;;;;;5069406;28;20028;-67
2023/10/11 13:15:08;;;;;;;11.55;3.17;;;24.00;88.20;;;;;;5064459;28;20040;-65
2023/10/11 13:17:34;;;;;;;16.42;3.15;;;24.00;87.50;;;;;;5054808;28;20044;-67
2023/10/11 13:20:10;;;;;;;7.90;3.20;;;24.00;88.70;;;;;;5068813;28;20489;-66
2023/10/11 13:22:35;;;;;;;11.18;3.20;;;24.00;90.00;;;;;;5072025;28;20017;-66
2023/10/11 13:25:02;;;;;;;14.43;2.72;;;23.90;90.10;;;;;;5066763;28;20036;-67
2023/10/11 13:27:30;;;;;;;10.50;2.90;;;24.00;88.30;;;;;;5065791;28;20052;-66
2023/10/11 13:30:01;;;;;;;16.92;3.67;;;23.90;88.40;;;;;;5070309;28;20086;-67
2023/10/11 13:32:28;;;;;;;12.68;3.10;;;24.00;89.20;;;;;;5069755;28;20497;-66
2023/10/11 13:34:54;;;;;;;18.17;3.88;;;24.00;86.30;;;;;;5069720;28;20673;-67
2023/10/11 13:37:22;;;;;;;19.13;2.80;;;24.00;87.50;;;;;;5065817;28;20025;-66
2023/10/11 13:39:47;;;;;;;12.40;3.40;;;24.10;85.70;;;;;;5067618;28;20108;-66
2023/10/11 13:42:14;;;;;;;14.68;3.47;;;24.10;84.70;;;;;;5067757;28;20111;-66
2023/10/11 13:44:43;;;;;;;12.48;2.95;;;24.10;85.80;;;;;;5067562;28;20088;-66
2023/10/11 13:47:09;;;;;;;19.23;3.63;;;24.10;84.80;;;;;;5071733;28;20439;-67
2023/10/11 13:49:37;;;;;;;18.30;3.60;;;24.00;85.70;;;;;;5068140;28;20107;-67
2023/10/11 13:52:03;;;;;;;10.50;3.75;;;24.10;85.40;;;;;;5071974;28;20153;-66